sensor_id;sensor_type;location;lat;lon;timestamp;temperature;humidity
51476;DHT22;37554;50.362;7.568;2023-01-16T00:01:00;12.60;59.30
51476;DHT22;37554;50.362;7.568;2023-01-16T00:03:26;12.60;59.30
51476;DHT22;37554;50.362;7.568;2023-01-16T00:05:52;12.60;59.30
51476;DHT22;37554;50.362;7.568;2023-01-16T00:08:18;12.60;59.20
51476;DHT22;37554;50.362;7.568;2023-01-16T00:10:44;12.60;59.20
51476;DHT22;37554;50.362;7.568;2023-01-16T00:13:11;12.60;59.20
51476;DHT22;37554;50.362;7.568;2023-01-16T00:15:37;12.60;59.20
51476;DHT22;37554;50.362;7.568;2023-01-16T00:18:04;12.60;59.20
51476;DHT22;37554;50.362;7.568;2023-01-16T00:20:29;12.60;59.20
51476;DHT22;37554;50.362;7.568;2023-01-16T00:22:55;12.60;59.20
51476;DHT22;37554;50.362;7.568;2023-01-16T00:25:21;12.60;59.20
51476;DHT22;37554;50.362;7.568;2023-01-16T00:27:46;12.60;59.20
51476;DHT22;37554;50.362;7.568;2023-01-16T00:30:12;12.60;59.20
51476;DHT22;37554;50.362;7.568;2023-01-16T00:32:38;12.60;59.20
51476;DHT22;37554;50.362;7.568;2023-01-16T00:35:04;12.60;59.20
51476;DHT22;37554;50.362;7.568;2023-01-16T00:37:30;12.60;59.20
51476;DHT22;37554;50.362;7.568;2023-01-16T00:39:57;12.60;59.20
51476;DHT22;37554;50.362;7.568;2023-01-16T00:42:23;12.50;59.20
51476;DHT22;37554;50.362;7.568;2023-01-16T00:44:48;12.60;59.30
51476;DHT22;37554;50.362;7.568;2023-01-16T00:47:14;12.50;59.20
51476;DHT22;37554;50.362;7.568;2023-01-16T00:49:40;12.50;59.20
51476;DHT22;37554;50.362;7.568;2023-01-16T00:52:05;12.50;59.20
51476;DHT22;37554;50.362;7.568;2023-01-16T00:54:31;12.50;59.20
51476;DHT22;37554;50.362;7.568;2023-01-16T00:56:57;12.60;59.30
51476;DHT22;37554;50.362;7.568;2023-01-16T00:59:22;12.50;59.20
51476;DHT22;37554;50.362;7.568;2023-01-16T01:01:48;12.50;59.30
51476;DHT22;37554;50.362;7.568;2023-01-16T01:04:14;12.50;59.20
51476;DHT22;37554;50.362;7.568;2023-01-16T01:06:39;12.50;59.30
51476;DHT22;37554;50.362;7.568;2023-01-16T01:09:05;12.50;59.30
51476;DHT22;37554;50.362;7.568;2023-01-16T01:11:31;12.50;59.30
51476;DHT22;37554;50.362;7.568;2023-01-16T01:13:57;12.50;59.30
51476;DHT22;37554;50.362;7.568;2023-01-16T01:16:23;12.50;59.20
51476;DHT22;37554;50.362;7.568;2023-01-16T01:18:49;12.50;59.20
51476;DHT22;37554;50.362;7.568;2023-01-16T01:21:15;12.50;59.30
51476;DHT22;37554;50.362;7.568;2023-01-16T01:23:41;12.50;59.20
51476;DHT22;37554;50.362;7.568;2023-01-16T01:26:11;12.50;59.90
51476;DHT22;37554;50.362;7.568;2023-01-16T01:28:37;12.50;59.20
51476;DHT22;37554;50.362;7.568;2023-01-16T01:31:08;12.50;59.20
51476;DHT22;37554;50.362;7.568;2023-01-16T01:33:34;12.50;59.20
51476;DHT22;37554;50.362;7.568;2023-01-16T01:36:00;12.50;59.20
51476;DHT22;37554;50.362;7.568;2023-01-16T01:38:26;12.50;59.20
51476;DHT22;37554;50.362;7.568;2023-01-16T01:40:52;12.50;59.30
51476;DHT22;37554;50.362;7.568;2023-01-16T01:43:18;12.40;59.20
51476;DHT22;37554;50.362;7.568;2023-01-16T01:45:48;12.50;59.30
51476;DHT22;37554;50.362;7.568;2023-01-16T01:48:27;12.40;59.20
51476;DHT22;37554;50.362;7.568;2023-01-16T01:51:04;12.40;59.20
51476;DHT22;37554;50.362;7.568;2023-01-16T01:53:38;12.40;59.20
51476;DHT22;37554;50.362;7.568;2023-01-16T01:56:22;12.40;59.30
51476;DHT22;37554;50.362;7.568;2023-01-16T01:58:51;12.40;59.40
51476;DHT22;37554;50.362;7.568;2023-01-16T02:01:18;12.40;59.40
51476;DHT22;37554;50.362;7.568;2023-01-16T02:03:51;12.40;59.40
51476;DHT22;37554;50.362;7.568;2023-01-16T02:06:21;12.40;59.40
51476;DHT22;37554;50.362;7.568;2023-01-16T02:08:52;12.30;59.40
51476;DHT22;37554;50.362;7.568;2023-01-16T02:11:34;12.30;59.40
51476;DHT22;37554;50.362;7.568;2023-01-16T02:14:08;12.40;59.40
51476;DHT22;37554;50.362;7.568;2023-01-16T02:16:34;12.40;59.40
51476;DHT22;37554;50.362;7.568;2023-01-16T02:28:09;12.30;59.50
51476;DHT22;37554;50.362;7.568;2023-01-16T02:42:41;12.30;59.60
51476;DHT22;37554;50.362;7.568;2023-01-16T02:53:28;12.30;59.60
51476;DHT22;37554;50.362;7.568;2023-01-16T02:55:57;12.30;59.60
51476;DHT22;37554;50.362;7.568;2023-01-16T02:58:29;12.20;59.60
51476;DHT22;37554;50.362;7.568;2023-01-16T03:00:58;12.20;59.50
51476;DHT22;37554;50.362;7.568;2023-01-16T03:04:04;12.20;59.50
51476;DHT22;37554;50.362;7.568;2023-01-16T03:06:46;12.20;60.00
51476;DHT22;37554;50.362;7.568;2023-01-16T03:09:28;12.20;59.60
51476;DHT22;37554;50.362;7.568;2023-01-16T03:12:39;12.20;59.70
51476;DHT22;37554;50.362;7.568;2023-01-16T03:15:44;12.20;59.70
51476;DHT22;37554;50.362;7.568;2023-01-16T03:18:44;12.20;59.70
51476;DHT22;37554;50.362;7.568;2023-01-16T03:23:55;12.20;59.70
51476;DHT22;37554;50.362;7.568;2023-01-16T03:26:43;12.20;59.80
51476;DHT22;37554;50.362;7.568;2023-01-16T03:31:56;12.20;59.80
51476;DHT22;37554;50.362;7.568;2023-01-16T03:34:45;12.20;59.80
51476;DHT22;37554;50.362;7.568;2023-01-16T03:39:45;12.20;59.80
51476;DHT22;37554;50.362;7.568;2023-01-16T03:42:23;12.20;59.80
51476;DHT22;37554;50.362;7.568;2023-01-16T03:44:57;12.20;59.90
51476;DHT22;37554;50.362;7.568;2023-01-16T03:47:30;12.20;59.90
51476;DHT22;37554;50.362;7.568;2023-01-16T03:50:01;12.20;59.90
51476;DHT22;37554;50.362;7.568;2023-01-16T03:52:37;12.20;59.90
51476;DHT22;37554;50.362;7.568;2023-01-16T03:55:12;12.10;59.90
51476;DHT22;37554;50.362;7.568;2023-01-16T03:58:07;12.10;59.90
51476;DHT22;37554;50.362;7.568;2023-01-16T04:03:18;12.10;59.90
51476;DHT22;37554;50.362;7.568;2023-01-16T04:05:59;12.10;59.90
51476;DHT22;37554;50.362;7.568;2023-01-16T04:08:35;12.10;59.90
51476;DHT22;37554;50.362;7.568;2023-01-16T04:11:02;12.10;59.90
51476;DHT22;37554;50.362;7.568;2023-01-16T04:13:32;12.10;60.00
51476;DHT22;37554;50.362;7.568;2023-01-16T04:16:00;12.10;60.00
51476;DHT22;37554;50.362;7.568;2023-01-16T04:18:31;12.10;59.90
51476;DHT22;37554;50.362;7.568;2023-01-16T04:20:58;12.10;59.90
51476;DHT22;37554;50.362;7.568;2023-01-16T04:23:24;12.10;59.90
51476;DHT22;37554;50.362;7.568;2023-01-16T04:25:49;12.10;60.00
51476;DHT22;37554;50.362;7.568;2023-01-16T04:28:16;12.00;60.00
51476;DHT22;37554;50.362;7.568;2023-01-16T04:30:41;12.00;60.00
51476;DHT22;37554;50.362;7.568;2023-01-16T04:33:07;12.00;60.00
51476;DHT22;37554;50.362;7.568;2023-01-16T04:35:33;12.00;60.00
51476;DHT22;37554;50.362;7.568;2023-01-16T04:37:59;12.00;59.90
51476;DHT22;37554;50.362;7.568;2023-01-16T04:40:25;12.00;60.00
51476;DHT22;37554;50.362;7.568;2023-01-16T04:42:50;11.90;59.90
51476;DHT22;37554;50.362;7.568;2023-01-16T04:45:16;12.00;59.90
51476;DHT22;37554;50.362;7.568;2023-01-16T04:47:46;12.00;59.90
51476;DHT22;37554;50.362;7.568;2023-01-16T04:50:12;12.00;60.00
51476;DHT22;37554;50.362;7.568;2023-01-16T04:52:37;11.90;59.90
51476;DHT22;37554;50.362;7.568;2023-01-16T04:55:03;11.90;59.90
51476;DHT22;37554;50.362;7.568;2023-01-16T04:57:29;11.90;59.90
51476;DHT22;37554;50.362;7.568;2023-01-16T04:59:55;11.90;59.90
51476;DHT22;37554;50.362;7.568;2023-01-16T05:02:20;11.90;59.90
51476;DHT22;37554;50.362;7.568;2023-01-16T05:04:46;11.90;60.00
51476;DHT22;37554;50.362;7.568;2023-01-16T05:07:11;11.90;60.00
51476;DHT22;37554;50.362;7.568;2023-01-16T05:09:37;11.90;60.00
51476;DHT22;37554;50.362;7.568;2023-01-16T05:12:03;11.90;60.00
51476;DHT22;37554;50.362;7.568;2023-01-16T05:14:28;11.80;60.00
51476;DHT22;37554;50.362;7.568;2023-01-16T05:16:54;11.80;60.00
51476;DHT22;37554;50.362;7.568;2023-01-16T05:19:20;11.80;60.00
51476;DHT22;37554;50.362;7.568;2023-01-16T05:21:45;11.80;60.00
51476;DHT22;37554;50.362;7.568;2023-01-16T05:24:11;11.80;60.00
51476;DHT22;37554;50.362;7.568;2023-01-16T05:26:37;11.80;60.00
51476;DHT22;37554;50.362;7.568;2023-01-16T05:29:03;11.80;60.00
51476;DHT22;37554;50.362;7.568;2023-01-16T05:31:28;11.80;60.10
51476;DHT22;37554;50.362;7.568;2023-01-16T05:33:54;11.80;60.00
51476;DHT22;37554;50.362;7.568;2023-01-16T05:36:20;11.80;60.00
51476;DHT22;37554;50.362;7.568;2023-01-16T05:38:45;11.80;60.00
51476;DHT22;37554;50.362;7.568;2023-01-16T05:41:12;11.80;60.00
51476;DHT22;37554;50.362;7.568;2023-01-16T05:43:37;11.70;59.90
51476;DHT22;37554;50.362;7.568;2023-01-16T05:46:03;11.70;59.90
51476;DHT22;37554;50.362;7.568;2023-01-16T05:48:29;11.70;59.90
51476;DHT22;37554;50.362;7.568;2023-01-16T05:50:56;11.70;59.90
51476;DHT22;37554;50.362;7.568;2023-01-16T05:53:22;11.70;59.90
51476;DHT22;37554;50.362;7.568;2023-01-16T05:55:48;11.70;59.90
51476;DHT22;37554;50.362;7.568;2023-01-16T05:58:15;11.70;59.90
51476;DHT22;37554;50.362;7.568;2023-01-16T06:00:41;11.70;59.90
51476;DHT22;37554;50.362;7.568;2023-01-16T06:03:08;11.70;59.80
51476;DHT22;37554;50.362;7.568;2023-01-16T06:05:34;11.70;59.80
51476;DHT22;37554;50.362;7.568;2023-01-16T06:07:59;11.70;59.80
51476;DHT22;37554;50.362;7.568;2023-01-16T06:10:26;11.70;59.80
51476;DHT22;37554;50.362;7.568;2023-01-16T06:12:51;11.70;59.80
51476;DHT22;37554;50.362;7.568;2023-01-16T06:15:20;11.70;59.80
51476;DHT22;37554;50.362;7.568;2023-01-16T06:17:46;11.70;59.70
51476;DHT22;37554;50.362;7.568;2023-01-16T06:20:12;11.70;59.80
51476;DHT22;37554;50.362;7.568;2023-01-16T06:22:38;11.70;59.80
51476;DHT22;37554;50.362;7.568;2023-01-16T06:25:04;11.70;59.70
51476;DHT22;37554;50.362;7.568;2023-01-16T06:27:30;11.70;59.70
51476;DHT22;37554;50.362;7.568;2023-01-16T06:29:57;11.70;59.70
51476;DHT22;37554;50.362;7.568;2023-01-16T06:32:22;11.70;59.70
51476;DHT22;37554;50.362;7.568;2023-01-16T06:34:48;11.70;59.70
51476;DHT22;37554;50.362;7.568;2023-01-16T06:37:13;11.70;59.70
51476;DHT22;37554;50.362;7.568;2023-01-16T06:39:39;11.70;59.70
51476;DHT22;37554;50.362;7.568;2023-01-16T06:42:05;11.70;59.70
51476;DHT22;37554;50.362;7.568;2023-01-16T06:44:34;11.70;59.60
51476;DHT22;37554;50.362;7.568;2023-01-16T06:47:01;11.70;59.60
51476;DHT22;37554;50.362;7.568;2023-01-16T06:49:26;11.70;59.60
51476;DHT22;37554;50.362;7.568;2023-01-16T06:51:52;11.70;59.50
51476;DHT22;37554;50.362;7.568;2023-01-16T06:54:18;11.70;59.50
51476;DHT22;37554;50.362;7.568;2023-01-16T06:56:44;11.70;59.60
51476;DHT22;37554;50.362;7.568;2023-01-16T06:59:09;11.70;59.50
51476;DHT22;37554;50.362;7.568;2023-01-16T07:01:35;11.70;59.50
51476;DHT22;37554;50.362;7.568;2023-01-16T07:04:00;11.70;59.50
51476;DHT22;37554;50.362;7.568;2023-01-16T07:06:26;11.70;59.50
51476;DHT22;37554;50.362;7.568;2023-01-16T07:08:52;11.70;59.50
51476;DHT22;37554;50.362;7.568;2023-01-16T07:11:18;11.70;59.50
51476;DHT22;37554;50.362;7.568;2023-01-16T07:13:44;11.70;59.50
51476;DHT22;37554;50.362;7.568;2023-01-16T07:16:11;11.70;59.60
51476;DHT22;37554;50.362;7.568;2023-01-16T07:18:55;11.70;59.50
51476;DHT22;37554;50.362;7.568;2023-01-16T07:21:41;11.70;59.00
51476;DHT22;37554;50.362;7.568;2023-01-16T07:24:28;11.70;59.00
51476;DHT22;37554;50.362;7.568;2023-01-16T07:27:00;11.80;59.30
51476;DHT22;37554;50.362;7.568;2023-01-16T07:29:30;11.90;59.50
51476;DHT22;37554;50.362;7.568;2023-01-16T07:31:57;11.90;59.50
51476;DHT22;37554;50.362;7.568;2023-01-16T07:34:23;11.90;59.50
51476;DHT22;37554;50.362;7.568;2023-01-16T07:36:49;11.90;59.50
51476;DHT22;37554;50.362;7.568;2023-01-16T07:39:14;11.90;59.40
51476;DHT22;37554;50.362;7.568;2023-01-16T07:41:40;11.90;59.40
51476;DHT22;37554;50.362;7.568;2023-01-16T07:44:06;11.90;59.40
51476;DHT22;37554;50.362;7.568;2023-01-16T07:46:31;11.90;59.40
51476;DHT22;37554;50.362;7.568;2023-01-16T07:48:57;11.90;59.40
51476;DHT22;37554;50.362;7.568;2023-01-16T07:51:23;11.90;59.40
51476;DHT22;37554;50.362;7.568;2023-01-16T07:53:49;11.90;59.30
51476;DHT22;37554;50.362;7.568;2023-01-16T07:56:15;11.90;59.40
51476;DHT22;37554;50.362;7.568;2023-01-16T07:58:41;11.90;59.30
51476;DHT22;37554;50.362;7.568;2023-01-16T08:01:09;11.90;59.30
51476;DHT22;37554;50.362;7.568;2023-01-16T08:03:36;11.80;59.30
51476;DHT22;37554;50.362;7.568;2023-01-16T08:06:02;11.80;59.30
51476;DHT22;37554;50.362;7.568;2023-01-16T08:08:28;11.80;59.30
51476;DHT22;37554;50.362;7.568;2023-01-16T08:10:58;11.80;59.30
51476;DHT22;37554;50.362;7.568;2023-01-16T08:13:25;11.80;59.40
51476;DHT22;37554;50.362;7.568;2023-01-16T08:15:51;11.80;59.40
51476;DHT22;37554;50.362;7.568;2023-01-16T08:18:20;11.80;59.40
51476;DHT22;37554;50.362;7.568;2023-01-16T08:20:46;11.80;59.40
51476;DHT22;37554;50.362;7.568;2023-01-16T08:23:12;11.80;59.40
51476;DHT22;37554;50.362;7.568;2023-01-16T08:25:38;11.80;59.40
51476;DHT22;37554;50.362;7.568;2023-01-16T08:28:04;11.80;59.50
51476;DHT22;37554;50.362;7.568;2023-01-16T08:30:30;11.80;59.50
51476;DHT22;37554;50.362;7.568;2023-01-16T08:33:00;11.80;59.40
51476;DHT22;37554;50.362;7.568;2023-01-16T08:35:27;11.80;59.40
51476;DHT22;37554;50.362;7.568;2023-01-16T08:37:56;11.80;59.40
51476;DHT22;37554;50.362;7.568;2023-01-16T08:40:21;11.80;59.50
51476;DHT22;37554;50.362;7.568;2023-01-16T08:42:47;11.80;59.40
51476;DHT22;37554;50.362;7.568;2023-01-16T08:45:31;11.80;59.40
51476;DHT22;37554;50.362;7.568;2023-01-16T08:48:21;11.80;59.40
51476;DHT22;37554;50.362;7.568;2023-01-16T08:51:19;11.80;59.40
51476;DHT22;37554;50.362;7.568;2023-01-16T08:53:53;11.80;59.30
51476;DHT22;37554;50.362;7.568;2023-01-16T08:56:20;11.80;59.40
51476;DHT22;37554;50.362;7.568;2023-01-16T08:58:46;11.80;59.30
51476;DHT22;37554;50.362;7.568;2023-01-16T09:01:15;11.80;59.30
51476;DHT22;37554;50.362;7.568;2023-01-16T09:03:41;11.80;59.30
51476;DHT22;37554;50.362;7.568;2023-01-16T09:06:07;11.80;59.30
51476;DHT22;37554;50.362;7.568;2023-01-16T09:08:36;11.70;59.60
51476;DHT22;37554;50.362;7.568;2023-01-16T09:11:10;11.80;59.40
51476;DHT22;37554;50.362;7.568;2023-01-16T09:13:55;11.70;59.30
51476;DHT22;37554;50.362;7.568;2023-01-16T09:16:25;11.70;59.30
51476;DHT22;37554;50.362;7.568;2023-01-16T09:18:54;11.70;59.30
51476;DHT22;37554;50.362;7.568;2023-01-16T09:21:20;11.70;59.30
51476;DHT22;37554;50.362;7.568;2023-01-16T09:23:50;11.70;59.30
51476;DHT22;37554;50.362;7.568;2023-01-16T09:26:16;11.70;59.40
51476;DHT22;37554;50.362;7.568;2023-01-16T09:28:42;11.70;59.40
51476;DHT22;37554;50.362;7.568;2023-01-16T09:31:08;11.70;59.40
51476;DHT22;37554;50.362;7.568;2023-01-16T09:33:34;11.70;59.40
51476;DHT22;37554;50.362;7.568;2023-01-16T09:36:00;11.70;59.50
51476;DHT22;37554;50.362;7.568;2023-01-16T09:38:25;11.70;59.50
51476;DHT22;37554;50.362;7.568;2023-01-16T09:40:55;11.70;59.60
51476;DHT22;37554;50.362;7.568;2023-01-16T09:43:40;11.70;59.60
51476;DHT22;37554;50.362;7.568;2023-01-16T09:46:11;11.70;59.50
51476;DHT22;37554;50.362;7.568;2023-01-16T09:48:47;11.70;59.60
51476;DHT22;37554;50.362;7.568;2023-01-16T09:51:42;11.70;59.60
51476;DHT22;37554;50.362;7.568;2023-01-16T09:54:21;11.70;59.70
51476;DHT22;37554;50.362;7.568;2023-01-16T09:57:12;11.70;59.80
51476;DHT22;37554;50.362;7.568;2023-01-16T09:59:59;11.70;59.80
51476;DHT22;37554;50.362;7.568;2023-01-16T10:02:32;11.70;59.80
51476;DHT22;37554;50.362;7.568;2023-01-16T10:05:00;11.70;59.80
51476;DHT22;37554;50.362;7.568;2023-01-16T10:07:49;11.80;59.90
51476;DHT22;37554;50.362;7.568;2023-01-16T10:18:44;11.80;59.70
51476;DHT22;37554;50.362;7.568;2023-01-16T10:26:29;11.90;59.60
51476;DHT22;37554;50.362;7.568;2023-01-16T10:31:48;12.10;59.70
51476;DHT22;37554;50.362;7.568;2023-01-16T10:37:18;12.20;59.80
51476;DHT22;37554;50.362;7.568;2023-01-16T10:39:45;12.20;59.70
51476;DHT22;37554;50.362;7.568;2023-01-16T10:42:13;12.20;59.70
51476;DHT22;37554;50.362;7.568;2023-01-16T10:47:52;12.20;59.70
51476;DHT22;37554;50.362;7.568;2023-01-16T10:50:37;12.20;59.70
51476;DHT22;37554;50.362;7.568;2023-01-16T10:53:09;12.20;59.60
51476;DHT22;37554;50.362;7.568;2023-01-16T10:55:39;12.30;59.60
51476;DHT22;37554;50.362;7.568;2023-01-16T11:00:49;12.20;59.50
51476;DHT22;37554;50.362;7.568;2023-01-16T11:03:43;12.30;59.90
51476;DHT22;37554;50.362;7.568;2023-01-16T11:06:15;12.40;60.30
51476;DHT22;37554;50.362;7.568;2023-01-16T11:08:45;12.50;59.80
51476;DHT22;37554;50.362;7.568;2023-01-16T11:11:13;12.70;59.50
51476;DHT22;37554;50.362;7.568;2023-01-16T11:13:59;12.80;59.10
51476;DHT22;37554;50.362;7.568;2023-01-16T11:16:44;12.80;58.90
51476;DHT22;37554;50.362;7.568;2023-01-16T11:19:40;12.80;58.90
51476;DHT22;37554;50.362;7.568;2023-01-16T11:22:22;12.80;58.90
51476;DHT22;37554;50.362;7.568;2023-01-16T11:24:50;12.80;58.90
51476;DHT22;37554;50.362;7.568;2023-01-16T11:27:20;12.80;59.00
51476;DHT22;37554;50.362;7.568;2023-01-16T11:29:52;12.80;59.00
51476;DHT22;37554;50.362;7.568;2023-01-16T11:32:19;12.70;59.00
51476;DHT22;37554;50.362;7.568;2023-01-16T11:34:53;12.70;59.00
51476;DHT22;37554;50.362;7.568;2023-01-16T11:37:20;12.60;59.10
51476;DHT22;37554;50.362;7.568;2023-01-16T11:39:51;12.60;59.10
51476;DHT22;37554;50.362;7.568;2023-01-16T11:42:18;12.70;59.10
51476;DHT22;37554;50.362;7.568;2023-01-16T11:45:32;12.80;58.90
51476;DHT22;37554;50.362;7.568;2023-01-16T11:48:15;13.20;58.40
51476;DHT22;37554;50.362;7.568;2023-01-16T11:50:52;13.60;57.60
51476;DHT22;37554;50.362;7.568;2023-01-16T11:53:20;13.70;57.30
51476;DHT22;37554;50.362;7.568;2023-01-16T12:04:25;14.00;56.90
51476;DHT22;37554;50.362;7.568;2023-01-16T12:07:26;13.80;57.10
51476;DHT22;37554;50.362;7.568;2023-01-16T12:10:16;13.70;57.40
51476;DHT22;37554;50.362;7.568;2023-01-16T12:13:09;13.60;57.80
51476;DHT22;37554;50.362;7.568;2023-01-16T12:16:20;13.50;58.10
51476;DHT22;37554;50.362;7.568;2023-01-16T12:22:02;13.30;58.50
51476;DHT22;37554;50.362;7.568;2023-01-16T12:33:21;13.30;59.00
51476;DHT22;37554;50.362;7.568;2023-01-16T12:35:59;13.40;58.80
51476;DHT22;37554;50.362;7.568;2023-01-16T12:38:32;13.40;58.70
51476;DHT22;37554;50.362;7.568;2023-01-16T12:41:14;13.40;58.70
51476;DHT22;37554;50.362;7.568;2023-01-16T12:47:29;13.40;58.90
51476;DHT22;37554;50.362;7.568;2023-01-16T12:52:10;13.30;59.20
51476;DHT22;37554;50.362;7.568;2023-01-16T13:00:21;13.30;59.20
51476;DHT22;37554;50.362;7.568;2023-01-16T13:02:54;13.40;59.30
51476;DHT22;37554;50.362;7.568;2023-01-16T13:05:25;13.40;59.30
51476;DHT22;37554;50.362;7.568;2023-01-16T13:10:44;13.40;59.20
51476;DHT22;37554;50.362;7.568;2023-01-16T13:13:55;13.30;59.20
51476;DHT22;37554;50.362;7.568;2023-01-16T13:16:34;13.30;59.40
51476;DHT22;37554;50.362;7.568;2023-01-16T13:21:32;13.30;59.50
51476;DHT22;37554;50.362;7.568;2023-01-16T13:26:34;12.90;57.70
51476;DHT22;37554;50.362;7.568;2023-01-16T13:29:06;12.40;59.20
51476;DHT22;37554;50.362;7.568;2023-01-16T13:31:34;12.20;59.90
51476;DHT22;37554;50.362;7.568;2023-01-16T13:42:06;12.30;60.60
51476;DHT22;37554;50.362;7.568;2023-01-16T13:44:39;12.50;60.40
51476;DHT22;37554;50.362;7.568;2023-01-16T13:47:31;12.70;60.00
51476;DHT22;37554;50.362;7.568;2023-01-16T13:52:32;12.80;59.80
51476;DHT22;37554;50.362;7.568;2023-01-16T13:55:01;12.80;59.70
51476;DHT22;37554;50.362;7.568;2023-01-16T13:57:32;12.90;60.10
51476;DHT22;37554;50.362;7.568;2023-01-16T14:00:09;13.20;60.20
51476;DHT22;37554;50.362;7.568;2023-01-16T14:02:40;13.40;59.80
51476;DHT22;37554;50.362;7.568;2023-01-16T14:05:17;13.40;59.90
51476;DHT22;37554;50.362;7.568;2023-01-16T14:13:35;13.10;60.20
51476;DHT22;37554;50.362;7.568;2023-01-16T14:21:39;12.90;60.30
51476;DHT22;37554;50.362;7.568;2023-01-16T14:24:14;12.80;60.30
51476;DHT22;37554;50.362;7.568;2023-01-16T14:26:42;12.70;60.30
51476;DHT22;37554;50.362;7.568;2023-01-16T14:34:22;12.70;60.50
51476;DHT22;37554;50.362;7.568;2023-01-16T14:36:51;12.60;60.40
51476;DHT22;37554;50.362;7.568;2023-01-16T14:39:33;12.70;60.40
51476;DHT22;37554;50.362;7.568;2023-01-16T14:42:13;12.70;60.30
51476;DHT22;37554;50.362;7.568;2023-01-16T14:54:27;12.50;60.40
51476;DHT22;37554;50.362;7.568;2023-01-16T14:57:22;12.50;60.50
51476;DHT22;37554;50.362;7.568;2023-01-16T15:02:44;12.40;60.70
51476;DHT22;37554;50.362;7.568;2023-01-16T15:05:19;12.40;60.70
51476;DHT22;37554;50.362;7.568;2023-01-16T15:07:59;12.40;60.80
51476;DHT22;37554;50.362;7.568;2023-01-16T15:10:38;12.40;61.20
51476;DHT22;37554;50.362;7.568;2023-01-16T15:13:24;12.40;62.00
51476;DHT22;37554;50.362;7.568;2023-01-16T15:15:56;12.40;61.40
51476;DHT22;37554;50.362;7.568;2023-01-16T15:18:24;12.40;61.50
51476;DHT22;37554;50.362;7.568;2023-01-16T15:21:13;12.40;61.50
51476;DHT22;37554;50.362;7.568;2023-01-16T15:23:58;12.40;62.20
51476;DHT22;37554;50.362;7.568;2023-01-16T15:27:02;12.40;61.60
51476;DHT22;37554;50.362;7.568;2023-01-16T15:29:51;12.40;61.90
51476;DHT22;37554;50.362;7.568;2023-01-16T15:32:17;12.40;61.80
51476;DHT22;37554;50.362;7.568;2023-01-16T15:34:47;12.30;61.70
51476;DHT22;37554;50.362;7.568;2023-01-16T15:37:23;12.30;61.80
51476;DHT22;37554;50.362;7.568;2023-01-16T15:39:50;12.20;61.90
51476;DHT22;37554;50.362;7.568;2023-01-16T15:42:29;12.20;61.90
51476;DHT22;37554;50.362;7.568;2023-01-16T15:48:17;12.20;62.10
51476;DHT22;37554;50.362;7.568;2023-01-16T15:50:55;12.20;62.10
51476;DHT22;37554;50.362;7.568;2023-01-16T15:53:29;12.20;62.20
51476;DHT22;37554;50.362;7.568;2023-01-16T15:56:01;12.10;62.10
51476;DHT22;37554;50.362;7.568;2023-01-16T15:58:27;12.10;62.20
51476;DHT22;37554;50.362;7.568;2023-01-16T16:00:58;12.10;62.20
51476;DHT22;37554;50.362;7.568;2023-01-16T16:04:29;12.10;62.20
51476;DHT22;37554;50.362;7.568;2023-01-16T16:06:24;12.10;62.20
51476;DHT22;37554;50.362;7.568;2023-01-16T16:08:53;12.10;62.20
51476;DHT22;37554;50.362;7.568;2023-01-16T16:11:21;12.00;62.10
51476;DHT22;37554;50.362;7.568;2023-01-16T16:14:06;12.10;62.20
51476;DHT22;37554;50.362;7.568;2023-01-16T16:17:04;12.00;62.20
51476;DHT22;37554;50.362;7.568;2023-01-16T16:19:49;12.00;62.20
51476;DHT22;37554;50.362;7.568;2023-01-16T16:22:20;12.00;62.20
51476;DHT22;37554;50.362;7.568;2023-01-16T16:25:28;11.90;62.20
51476;DHT22;37554;50.362;7.568;2023-01-16T16:27:55;11.90;62.20
51476;DHT22;37554;50.362;7.568;2023-01-16T16:30:30;11.90;62.30
51476;DHT22;37554;50.362;7.568;2023-01-16T16:32:56;11.90;62.30
51476;DHT22;37554;50.362;7.568;2023-01-16T16:35:32;11.90;62.20
51476;DHT22;37554;50.362;7.568;2023-01-16T16:37:59;11.90;62.20
51476;DHT22;37554;50.362;7.568;2023-01-16T16:40:26;11.90;62.20
51476;DHT22;37554;50.362;7.568;2023-01-16T16:42:54;11.80;62.20
51476;DHT22;37554;50.362;7.568;2023-01-16T16:45:26;11.90;62.20
51476;DHT22;37554;50.362;7.568;2023-01-16T16:48:25;11.90;62.20
51476;DHT22;37554;50.362;7.568;2023-01-16T16:51:20;11.90;62.20
51476;DHT22;37554;50.362;7.568;2023-01-16T16:53:48;11.90;61.90
51476;DHT22;37554;50.362;7.568;2023-01-16T16:56:21;11.80;62.00
51476;DHT22;37554;50.362;7.568;2023-01-16T16:58:48;11.80;62.10
51476;DHT22;37554;50.362;7.568;2023-01-16T17:01:16;11.80;62.10
51476;DHT22;37554;50.362;7.568;2023-01-16T17:03:43;11.70;61.90
51476;DHT22;37554;50.362;7.568;2023-01-16T17:06:15;11.80;61.90
51476;DHT22;37554;50.362;7.568;2023-01-16T17:08:41;11.80;61.90
51476;DHT22;37554;50.362;7.568;2023-01-16T17:11:10;11.70;61.90
51476;DHT22;37554;50.362;7.568;2023-01-16T17:13:36;11.70;61.90
51476;DHT22;37554;50.362;7.568;2023-01-16T17:16:02;11.70;61.80
51476;DHT22;37554;50.362;7.568;2023-01-16T17:18:28;11.70;61.80
51476;DHT22;37554;50.362;7.568;2023-01-16T17:20:53;11.60;61.80
51476;DHT22;37554;50.362;7.568;2023-01-16T17:23:20;11.70;61.80
51476;DHT22;37554;50.362;7.568;2023-01-16T17:25:46;11.70;62.10
51476;DHT22;37554;50.362;7.568;2023-01-16T17:28:12;11.70;62.10
51476;DHT22;37554;50.362;7.568;2023-01-16T17:30:39;11.70;62.10
51476;DHT22;37554;50.362;7.568;2023-01-16T17:33:10;11.70;62.10
51476;DHT22;37554;50.362;7.568;2023-01-16T17:35:37;11.70;62.60
51476;DHT22;37554;50.362;7.568;2023-01-16T17:38:16;11.70;62.10
51476;DHT22;37554;50.362;7.568;2023-01-16T17:40:42;11.60;62.10
51476;DHT22;37554;50.362;7.568;2023-01-16T17:43:17;11.60;62.10
51476;DHT22;37554;50.362;7.568;2023-01-16T17:46:08;11.60;62.70
51476;DHT22;37554;50.362;7.568;2023-01-16T17:48:34;11.60;62.00
51476;DHT22;37554;50.362;7.568;2023-01-16T17:51:00;11.60;61.90
51476;DHT22;37554;50.362;7.568;2023-01-16T17:53:28;11.60;61.90
51476;DHT22;37554;50.362;7.568;2023-01-16T17:55:55;11.60;61.90
51476;DHT22;37554;50.362;7.568;2023-01-16T17:58:33;11.60;61.90
51476;DHT22;37554;50.362;7.568;2023-01-16T18:03:47;11.60;62.00
51476;DHT22;37554;50.362;7.568;2023-01-16T18:06:34;11.60;62.10
51476;DHT22;37554;50.362;7.568;2023-01-16T18:09:00;11.60;62.00
51476;DHT22;37554;50.362;7.568;2023-01-16T18:11:36;11.60;62.00
51476;DHT22;37554;50.362;7.568;2023-01-16T18:14:20;11.60;62.00
51476;DHT22;37554;50.362;7.568;2023-01-16T18:17:05;11.60;61.90
51476;DHT22;37554;50.362;7.568;2023-01-16T18:19:49;11.60;61.90
51476;DHT22;37554;50.362;7.568;2023-01-16T18:22:16;11.60;62.00
51476;DHT22;37554;50.362;7.568;2023-01-16T18:24:43;11.60;62.00
51476;DHT22;37554;50.362;7.568;2023-01-16T18:27:14;11.60;62.00
51476;DHT22;37554;50.362;7.568;2023-01-16T18:29:40;11.60;61.90